Latest Weather Observations for Banana Bank

IDQ60801

Issued at 2:22 am EST Wednesday 6 May 2026 (issued every 10 minutes, with the page automatically refreshed every 10 minutes)

About weather observations | Map of weather stations | Latest weather observations for QLD | Other Formats
Station Details ID: 040925 Name: BANANA BANK NORTH BEACON Lat: -27.53 Lon: 153.33 Height: 7.0 m
Data from the previous 72 hours. | See also: Recent months at Banana Bank
Date/Time
EST
Temp
°C
App
Temp
°C
Dew
Point
°C
Rel
Hum
%
Delta-T
°C
Wind Press
QNH
hPa
Press
MSL
hPa
Rain since
9am
mm
Dir  Spd
km/h
Gust
km/h
Spd
kts
Gust
kts
06/02:00am - - - - - SSE 11 13 6 7 - - -
06/01:30am - - - - - SSE 13 15 7 8 - - -
06/01:00am - - - - - SSE 17 19 9 10 - - -
06/12:30am - - - - - SSE 19 24 10 13 - - -
06/12:00am - - - - - SSW 9 11 5 6 - - -
 
Date/Time
EST
Temp
°C
App
Temp
°C
Dew
Point
°C
Rel
Hum
%
Delta-T
°C
Wind Press
QNH
hPa
Press
MSL
hPa
Rain since
9am
mm
Dir  Spd
km/h
Gust
km/h
Spd
kts
Gust
kts
05/11:30pm - - - - - SW 9 11 5 6 - - -
05/11:00pm - - - - - SSW 9 11 5 6 - - -
05/10:30pm - - - - - SSE 6 7 3 4 - - -
05/10:00pm - - - - - SE 6 6 3 3 - - -
05/09:30pm - - - - - SE 7 9 4 5 - - -
05/09:00pm - - - - - SE 7 7 4 4 - - -
05/08:30pm - - - - - SSE 4 6 2 3 - - -
05/08:00pm - - - - - CALM 0 4 0 2 - - -
05/07:30pm - - - - - CALM 0 2 0 1 - - -
05/07:00pm - - - - - E 2 4 1 2 - - -
05/06:30pm - - - - - E 4 6 2 3 - - -
05/06:00pm - - - - - E 6 7 3 4 - - -
05/05:30pm - - - - - ENE 9 11 5 6 - - -
05/05:00pm - - - - - ENE 11 13 6 7 - - -
05/04:30pm - - - - - ENE 9 11 5 6 - - -
05/04:00pm - - - - - ENE 9 9 5 5 - - -
05/03:30pm - - - - - NE 9 11 5 6 - - -
05/03:00pm - - - - - E 9 9 5 5 - - -
05/02:30pm - - - - - ESE 6 6 3 3 - - -
05/02:00pm - - - - - ESE 6 7 3 4 - - -
05/01:30pm - - - - - ESE 6 7 3 4 - - -
05/01:00pm - - - - - CALM 0 0 0 0 - - -
05/12:30pm - - - - - CALM 0 2 0 1 - - -
05/12:00pm - - - - - SE 2 4 1 2 - - -
05/11:30am - - - - - CALM 0 0 0 0 - - -
05/11:00am - - - - - CALM 0 0 0 0 - - -
05/10:30am - - - - - ENE 2 9 1 5 - - -
05/10:00am - - - - - CALM 0 0 0 0 - - -
05/09:30am - - - - - CALM 0 2 0 1 - - -
05/09:00am - - - - - ESE 4 4 2 2 - - -
05/08:30am - - - - - ESE 2 4 1 2 - - -
05/08:00am - - - - - SSW 2 6 1 3 - - -
05/07:30am - - - - - SW 9 11 5 6 - - -
05/07:00am - - - - - SW 9 11 5 6 - - -
05/06:30am - - - - - SW 7 9 4 5 - - -
05/06:00am - - - - - SSW 9 11 5 6 - - -
05/05:30am - - - - - SSW 9 9 5 5 - - -
05/05:00am - - - - - SSW 9 9 5 5 - - -
05/04:30am - - - - - SSW 7 9 4 5 - - -
05/04:00am - - - - - SSW 4 6 2 3 - - -
05/03:30am - - - - - SSW 9 11 5 6 - - -
05/03:00am - - - - - SW 13 15 7 8 - - -
05/02:30am - - - - - SW 13 15 7 8 - - -
05/02:00am - - - - - SSW 13 15 7 8 - - -
05/01:30am - - - - - S 9 9 5 5 - - -
05/01:00am - - - - - SSW 11 13 6 7 - - -
05/12:30am - - - - - SSW 9 11 5 6 - - -
05/12:00am - - - - - SSW 9 13 5 7 - - -
 
Date/Time
EST
Temp
°C
App
Temp
°C
Dew
Point
°C
Rel
Hum
%
Delta-T
°C
Wind Press
QNH
hPa
Press
MSL
hPa
Rain since
9am
mm
Dir  Spd
km/h
Gust
km/h
Spd
kts
Gust
kts
04/11:30pm - - - - - SSW 9 11 5 6 - - -
04/11:00pm - - - - - SSW 9 13 5 7 - - -
04/10:30pm - - - - - SSE 4 6 2 3 - - -
04/10:00pm - - - - - SSE 4 4 2 2 - - -
04/09:30pm - - - - - SSE 4 6 2 3 - - -
04/09:00pm - - - - - SSE 4 6 2 3 - - -
04/08:30pm - - - - - SE 6 6 3 3 - - -
04/08:00pm - - - - - SE 9 11 5 6 - - -
04/07:30pm - - - - - ESE 13 17 7 9 - - -
04/07:00pm - - - - - ESE 13 17 7 9 - - -
04/06:30pm - - - - - ESE 15 19 8 10 - - -
04/06:00pm - - - - - ESE 13 17 7 9 - - -
04/05:30pm - - - - - ESE 13 15 7 8 - - -
04/05:00pm - - - - - ESE 13 15 7 8 - - -
04/04:30pm - - - - - ESE 15 17 8 9 - - -
04/04:00pm - - - - - SE 15 17 8 9 - - -
04/03:30pm - - - - - ESE 15 17 8 9 - - -
04/03:00pm - - - - - SE 11 13 6 7 - - -
04/02:30pm - - - - - SE 15 17 8 9 - - -
04/02:00pm - - - - - SE 11 17 6 9 - - -
04/01:30pm - - - - - ESE 11 13 6 7 - - -
04/01:00pm - - - - - ESE 11 13 6 7 - - -
04/12:30pm - - - - - SE 11 13 6 7 - - -
04/12:00pm - - - - - SSE 9 11 5 6 - - -
04/11:30am - - - - - SE 17 20 9 11 - - -
04/11:00am - - - - - ESE 11 13 6 7 - - -
04/10:30am - - - - - SE 11 15 6 8 - - -
04/10:00am - - - - - E 13 15 7 8 - - -
04/09:30am - - - - - E 15 19 8 10 - - -
04/09:00am - - - - - SSE 6 9 3 5 - - -
04/08:30am - - - - - S 9 9 5 5 - - -
04/08:00am - - - - - S 11 13 6 7 - - -
04/07:30am - - - - - S 9 11 5 6 - - -
04/07:00am - - - - - S 9 11 5 6 - - -
04/06:30am - - - - - SSW 9 11 5 6 - - -
04/06:00am - - - - - SSW 11 13 6 7 - - -
04/05:30am - - - - - SSW 11 13 6 7 - - -
04/05:00am - - - - - SSW 13 15 7 8 - - -
04/04:30am - - - - - SSW 13 15 7 8 - - -
04/04:00am - - - - - SSW 11 13 6 7 - - -
04/03:30am - - - - - SSW 13 15 7 8 - - -
04/03:00am - - - - - SSW 11 13 6 7 - - -
04/02:30am - - - - - SSW 11 13 6 7 - - -
04/02:00am - - - - - SSW 11 13 6 7 - - -
04/01:30am - - - - - SSW 11 13 6 7 - - -
04/01:00am - - - - - SSW 13 15 7 8 - - -
04/12:30am - - - - - SSW 13 17 7 9 - - -
04/12:00am - - - - - SSW 15 17 8 9 - - -
 
Date/Time
EST
Temp
°C
App
Temp
°C
Dew
Point
°C
Rel
Hum
%
Delta-T
°C
Wind Press
QNH
hPa
Press
MSL
hPa
Rain since
9am
mm
Dir  Spd
km/h
Gust
km/h
Spd
kts
Gust
kts
03/11:30pm - - - - - SSW 13 15 7 8 - - -
03/11:00pm - - - - - SSW 13 15 7 8 - - -
03/10:30pm - - - - - SSW 13 15 7 8 - - -
03/10:00pm - - - - - SSW 13 15 7 8 - - -
03/09:30pm - - - - - SSW 13 15 7 8 - - -
03/09:00pm - - - - - S 11 15 6 8 - - -
03/08:30pm - - - - - S 11 13 6 7 - - -
03/08:00pm - - - - - S 9 11 5 6 - - -
03/07:30pm - - - - - S 11 13 6 7 - - -
03/07:00pm - - - - - SSE 7 9 4 5 - - -
03/06:30pm - - - - - SSE 7 9 4 5 - - -
03/06:00pm - - - - - SSE 9 11 5 6 - - -
03/05:30pm - - - - - SE 9 11 5 6 - - -
03/05:00pm - - - - - SSE 13 15 7 8 - - -
03/04:30pm - - - - - SSE 15 19 8 10 - - -
03/04:00pm - - - - - SSE 11 13 6 7 - - -
03/03:30pm - - - - - SE 11 13 6 7 - - -
03/03:00pm - - - - - SE 15 17 8 9 - - -
03/02:30pm - - - - - SE 15 19 8 10 - - -
03/02:00pm - - - - - SE 15 19 8 10 - - -
03/01:30pm - - - - - SE 17 20 9 11 - - -
03/01:00pm - - - - - SSE 17 20 9 11 - - -
03/12:30pm - - - - - SSE 19 20 10 11 - - -
03/12:00pm - - - - - SSE 19 22 10 12 - - -
03/11:30am - - - - - SSE 19 22 10 12 - - -
03/11:00am - - - - - SSE 17 19 9 10 - - -
03/10:30am - - - - - SSE 13 20 7 11 - - -
03/10:00am - - - - - S 17 22 9 12 - - -
03/09:30am - - - - - S 22 26 12 14 - - -
03/09:00am - - - - - S 13 19 7 10 - - -
03/08:30am - - - - - S 15 17 8 9 - - -
03/08:00am - - - - - S 19 22 10 12 - - -
03/07:30am - - - - - S 19 22 10 12 - - -
03/07:00am - - - - - SSW 19 22 10 12 - - -
03/06:30am - - - - - S 20 22 11 12 - - -
03/06:00am - - - - - S 19 22 10 12 - - -
03/05:30am - - - - - S 20 24 11 13 - - -
03/05:00am - - - - - SSW 19 22 10 12 - - -
03/04:30am - - - - - S 19 22 10 12 - - -
03/04:00am - - - - - SSW 19 24 10 13 - - -
03/03:30am - - - - - SSW 19 20 10 11 - - -
03/03:00am - - - - - SSW 17 19 9 10 - - -
03/02:30am - - - - - S 17 20 9 11 - - -

Other formats

Comma delimited format used in spreadsheet applications
http://www.bom.gov.au/fwo/IDQ60801/IDQ60801.94591.axf

JavaScript Object Notation format (JSON) in row-major order
http://www.bom.gov.au/fwo/IDQ60801/IDQ60801.94591.json

Data quality

Most of these data are generated automatically and are frequently updated. Quality checks on data are not normally performed. It is possible for incorrect values to appear. Refer to information at About Latest Weather Observations and please check the disclaimer before using these data.